^^
Grace C. Lehan Memorial Weather Station Historical Data
Daily Summary for March 12, 2021 Units:  English    Metric   Both
Daily Weekly Monthly Yearly
  High: Low: Average:
Temperature: 65.9 °F 45 °F 55.1 °F
Dew Point: 63.6 °F 43.4 °F 52.6 °F
Humidity: 96% 75% 91%
Wind Speed: 11mph 0mph 0.8mph
Wind Gust: 23mph - -
Wind- - SSE
Pressure: 30.24 in 29.77 in -
Precipitation: 0.81 in    
 
 
Tabular Data for March 12, 2021
Time Temperature Dew Point Pressure Wind Wind Speed Wind Gust Humidity Rainfall Rate (Hourly) solar
00:04 53.3 °F 45.6 °F 30.24 in East 0.3 mph 4 mph 75% 0.00 in 0 W/m2
00:09 53.3 °F 45.6 °F 30.24 in East 0.1 mph 4 mph 75% 0.00 in 0 W/m2
00:14 53.3 °F 45.6 °F 30.24 in Calm   4 mph 75% 0.00 in 0 W/m2
00:19 53.3 °F 45.6 °F 30.23 in Calm   4 mph 75% 0.00 in 0 W/m2
00:24 53.2 °F 45.5 °F 30.23 in East 0.3 mph 4 mph 75% 0.00 in 0 W/m2
00:29 53.2 °F 45.5 °F 30.22 in East 0.3 mph 4 mph 75.1% 0.00 in 0 W/m2
00:34 53.2 °F 45.9 °F 30.22 in Calm   4 mph 76.2% 0.00 in 0 W/m2
00:39 53.2 °F 46.2 °F 30.22 in Calm   1 mph 77% 0.00 in 0 W/m2
00:44 53.1 °F 46.1 °F 30.22 in Calm   1 mph 77% 0.00 in 0 W/m2
00:49 53 °F 46 °F 30.22 in East 0.1 mph 1 mph 77% 0.00 in 0 W/m2
00:54 53 °F 46.1 °F 30.22 in Calm   1 mph 77.4% 0.00 in 0 W/m2
00:59 52.9 °F 46.2 °F 30.21 in Calm   1 mph 78% 0.00 in 0 W/m2
01:04 52.9 °F 46.3 °F 30.22 in Calm   1 mph 78.2% 0.00 in 0 W/m2
01:09 52.8 °F 46.5 °F 30.22 in Calm     79% 0.00 in 0 W/m2
01:14 52.8 °F 46.6 °F 30.22 in Calm     79.3% 0.00 in 0 W/m2
01:19 52.7 °F 46.8 °F 30.22 in Calm     80.1% 0.00 in 0 W/m2
01:24 52.6 °F 47 °F 30.22 in Calm     81.1% 0.00 in 0 W/m2
01:29 52.5 °F 47.2 °F 30.21 in Calm     82% 0.00 in 0 W/m2
01:34 52.4 °F 47.3 °F 30.21 in Calm     82.6% 0.00 in 0 W/m2
01:39 52.2 °F 47.3 °F 30.21 in East 0.5 mph 2 mph 83.2% 0.00 in 0 W/m2
01:44 52 °F 47 °F 30.20 in East 0.2 mph 2 mph 83% 0.00 in 0 W/m2
01:49 51.8 °F 46.8 °F 30.20 in East 0.1 mph 3 mph 83% 0.00 in 0 W/m2
01:54 51.7 °F 46.7 °F 30.20 in East 0.5 mph 3 mph 83% 0.00 in 0 W/m2
01:59 51.7 °F 46.7 °F 30.21 in Calm   3 mph 83% 0.00 in 0 W/m2
02:04 51.9 °F 47.1 °F 30.21 in Calm   3 mph 83.8% 0.01 in 0 W/m2
02:09 51.9 °F 47.3 °F 30.20 in Calm   1 mph 84% 0.01 in 0 W/m2
02:14 52 °F 47.6 °F 30.19 in Calm   1 mph 85% 0.01 in 0 W/m2
02:19 51.9 °F 47.5 °F 30.18 in Calm   1 mph 85% 0.01 in 0 W/m2
02:24 51.8 °F 47.6 °F 30.18 in East 0.1 mph 1 mph 85.4% 0.01 in 0 W/m2
02:29 51.7 °F 47.7 °F 30.19 in Calm   1 mph 86% 0.01 in 0 W/m2
02:34 51.7 °F 47.6 °F 30.19 in Calm   1 mph 86% 0.01 in 0 W/m2
02:39 51.6 °F 47.6 °F 30.18 in Calm     86.1% 0.02 in 0 W/m2
02:44 51.6 °F 47.9 °F 30.18 in East 0.1 mph 1 mph 87% 0.02 in 0 W/m2
02:49 51.6 °F 47.8 °F 30.17 in Calm   1 mph 87% 0.02 in 0 W/m2
02:54 51.5 °F 47.8 °F 30.17 in Calm   1 mph 87% 0.02 in 0 W/m2
02:59 51.4 °F 47.8 °F 30.17 in Calm   1 mph 87.5% 0.02 in 0 W/m2
03:04 51.4 °F 47.9 °F 30.16 in Calm   1 mph 87.8% 0.02 in 0 W/m2
03:09 51.4 °F 48 °F 30.17 in Calm     88% 0.02 in 0 W/m2
03:14 51.3 °F 47.9 °F 30.16 in Calm     88% 0.02 in 0 W/m2
03:19 51.3 °F 47.9 °F 30.16 in Calm     88% 0.02 in 0 W/m2
03:24 51.3 °F 48.1 °F 30.16 in East 0.1 mph 2 mph 88.9% 0.02 in 0 W/m2
03:29 51.3 °F 48.1 °F 30.16 in Calm   2 mph 89% 0.02 in 0 W/m2
03:34 51.2 °F 48.1 °F 30.16 in East 0.2 mph 2 mph 89% 0.02 in 0 W/m2
03:39 51.1 °F 48 °F 30.15 in East 0.1 mph 2 mph 89% 0.01 in 0 W/m2
03:44 51 °F 47.9 °F 30.15 in Calm   2 mph 89% 0.01 in 0 W/m2
03:49 51 °F 47.9 °F 30.15 in Calm   2 mph 89% 0.01 in 0 W/m2
03:54 51 °F 47.9 °F 30.15 in ENE 0.2 mph 3 mph 89% 0.01 in 0 W/m2
03:59 51 °F 47.9 °F 30.15 in Calm   3 mph 89% 0.01 in 0 W/m2
04:00 51 °F 47.9 °F 30.14 in Calm   3 mph 89% 0.01 in 0 W/m2
04:09 51 °F 47.9 °F 30.14 in Calm   1 mph 89% 0.01 in 0 W/m2
04:14 51 °F 47.9 °F 30.14 in Calm   1 mph 89% 0.01 in 0 W/m2
04:19 51 °F 47.9 °F 30.14 in NE 0.2 mph 2 mph 89% 0.01 in 0 W/m2
04:24 51.1 °F 47.9 °F 30.12 in Calm   2 mph 89% 0.01 in 0 W/m2
04:29 51.1 °F 48 °F 30.12 in Calm   2 mph 89% 0.01 in 0 W/m2
04:34 51.1 °F 48 °F 30.12 in Calm   2 mph 89% 0.01 in 0 W/m2
04:39 51.1 °F 48 °F 30.11 in Calm     89% 0.00 in 0 W/m2
04:44 51.2 °F 48.1 °F 30.11 in NE 0.1 mph 2 mph 89.3% 0.00 in 0 W/m2
04:49 51.2 °F 48.4 °F 30.11 in NE 0.4 mph 3 mph 90% 0.00 in 0 W/m2
04:54 51.2 °F 48.4 °F 30.11 in NE 0.2 mph 3 mph 90% 0.00 in 0 W/m2
04:59 51.2 °F 48.4 °F 30.10 in NNE 0.2 mph 3 mph 90% 0.00 in 0 W/m2
05:04 51.2 °F 48.4 °F 30.10 in NNE 0.2 mph 3 mph 90% 0.00 in 0 W/m2
05:09 51.3 °F 48.5 °F 30.10 in NNE 0.2 mph 2 mph 90% 0.00 in 0 W/m2
05:14 51.3 °F 48.5 °F 30.09 in NNE 0.3 mph 2 mph 90% 0.00 in 0 W/m2
05:19 51.4 °F 48.6 °F 30.08 in Calm   2 mph 90% 0.00 in 0 W/m2
05:24 51.5 °F 48.7 °F 30.08 in NNE 0.1 mph 2 mph 90% 0.00 in 0 W/m2
05:29 51.6 °F 48.8 °F 30.07 in NNE 0.1 mph 2 mph 90% 0.00 in 0 W/m2
05:34 51.7 °F 49.2 °F 30.07 in Calm   2 mph 91% 0.00 in 0 W/m2
05:39 51.8 °F 49.3 °F 30.08 in Calm     91% 0.00 in 0 W/m2
05:44 52.1 °F 49.5 °F 30.08 in NE 0.8 mph 5 mph 91% 0.07 in 0 W/m2
05:49 52.4 °F 49.9 °F 30.07 in Calm   5 mph 91.2% 0.07 in 0 W/m2
05:54 52.6 °F 50.3 °F 30.07 in Calm   5 mph 92% 0.09 in 0 W/m2
05:59 52.7 °F 50.5 °F 30.07 in Calm   5 mph 92% 0.09 in 0 W/m2
06:04 52.8 °F 50.5 °F 30.07 in Calm   5 mph 92% 0.09 in 0 W/m2
06:09 52.8 °F 50.6 °F 30.07 in North 1.1 mph 7 mph 92% 0.09 in 0 W/m2
06:14 53 °F 50.7 °F 30.07 in West 1.2 mph 7 mph 92% 0.09 in 0 W/m2
06:19 53 °F 50.7 °F 30.07 in Calm   7 mph 92% 0.10 in 0 W/m2
06:24 52.8 °F 50.6 °F 30.07 in Calm   7 mph 92% 0.10 in 0 W/m2
06:29 52.8 °F 50.6 °F 30.07 in Calm   7 mph 92.1% 0.10 in 0 W/m2
06:34 52.8 °F 50.8 °F 30.06 in Calm   7 mph 93% 0.10 in 0 W/m2
06:39 52.8 °F 50.8 °F 30.05 in Calm     93% 0.10 in 0 W/m2
06:44 52.8 °F 50.8 °F 30.05 in Calm     93% 0.10 in 0 W/m2
06:49 52.9 °F 50.9 °F 30.05 in Calm     93% 0.10 in 0 W/m2
06:54 53 °F 51 °F 30.05 in North 0.5 mph 3 mph 93% 0.10 in 0 W/m2
06:59 53.1 °F 51.1 °F 30.04 in Calm   3 mph 93.1% 0.10 in 0 W/m2
07:04 53.1 °F 51.5 °F 30.04 in Calm   3 mph 94% 0.10 in 0 W/m2
07:09 53.2 °F 51.5 °F 30.04 in Calm     94% 0.01 in 0 W/m2
07:14 53.2 °F 51.5 °F 30.03 in Calm     94% 0.01 in 0 W/m2
07:19 53.2 °F 51.5 °F 30.03 in Calm     94% 0.01 in 0 W/m2
07:24 53.3 °F 51.6 °F 30.03 in Calm     94% 0.01 in 0 W/m2
07:29 53.3 °F 51.6 °F 30.03 in Calm     94% 0.01 in 0 W/m2
07:34 53.3 °F 51.6 °F 30.03 in NNE 0.2 mph 3 mph 94% 0.01 in 5 W/m2
07:39 53.4 °F 51.7 °F 30.02 in Calm   3 mph 94% 0.00 in 7 W/m2
07:44 53.5 °F 51.8 °F 30.02 in Calm   3 mph 94% 0.00 in 9 W/m2
07:49 53.6 °F 52 °F 30.02 in ESE 0.3 mph 5 mph 94.2% 0.00 in 11 W/m2
07:54 54.4 °F 53 °F 30.01 in ESE 0.5 mph 5 mph 95% 0.00 in 11 W/m2
07:59 56 °F 54.8 °F 30.01 in ESE 0.4 mph 5 mph 95.7% 0.00 in 5 W/m2
08:00 56.8 °F 55.7 °F 30.01 in Calm   5 mph 96% 0.00 in 5 W/m2
08:09 58.5 °F 57.4 °F 30.00 in SE 1.2 mph 6 mph 96% 0.00 in 16 W/m2
08:14 58.9 °F 57.8 °F 30.00 in SE 1 mph 6 mph 96% 0.00 in 18 W/m2
08:19 59.3 °F 58.1 °F 30.00 in SSE 1.4 mph 6 mph 96% 0.00 in 26 W/m2
08:24 59.6 °F 58.4 °F 30.00 in SSE 0.7 mph 6 mph 96% 0.00 in 44 W/m2
08:29 59.9 °F 58.8 °F 29.98 in SE 2.8 mph 9 mph 96% 0.00 in 51 W/m2
08:34 60.2 °F 59.1 °F 29.98 in SE 1.5 mph 9 mph 95.8% 0.00 in 49 W/m2
08:39 60.6 °F 59.3 °F 29.97 in SE 2 mph 12 mph 95.7% 0.00 in 70 W/m2
08:44 60.9 °F 59.4 °F 29.97 in SE 2 mph 12 mph 95% 0.00 in 70 W/m2
08:49 61.2 °F 59.7 °F 29.96 in SE 2.4 mph 12 mph 95% 0.00 in 70 W/m2
08:54 61.5 °F 59.9 °F 29.96 in SSE 2.1 mph 12 mph 94.6% 0.00 in 56 W/m2
08:59 61.8 °F 60.1 °F 29.95 in SE 3.1 mph 12 mph 94% 0.00 in 128 W/m2
09:04 62.1 °F 60.4 °F 29.94 in SE 1.6 mph 14 mph 94% 0.00 in 128 W/m2
09:09 62.5 °F 60.4 °F 29.94 in SE 1.8 mph 14 mph 93.1% 0.00 in 62 W/m2
09:14 62.6 °F 60.6 °F 29.93 in SSE 1.7 mph 14 mph 93% 0.00 in 69 W/m2
09:19 62.9 °F 60.8 °F 29.93 in SSE 1.7 mph 14 mph 93% 0.00 in 58 W/m2
09:24 63 °F 61 °F 29.93 in SSE 1.7 mph 14 mph 93% 0.00 in 72 W/m2
09:29 63.1 °F 61.1 °F 29.93 in SSE 2.2 mph 14 mph 93% 0.00 in 69 W/m2
09:34 63.2 °F 61.1 °F 29.93 in SSE 2.3 mph 14 mph 93% 0.00 in 69 W/m2
09:39 63.3 °F 61.2 °F 29.94 in SSE 3.4 mph 13 mph 93% 0.02 in 32 W/m2
09:44 63.3 °F 61.3 °F 29.94 in South 2.8 mph 13 mph 93% 0.06 in 18 W/m2
09:49 63.2 °F 61.2 °F 29.95 in South 2.7 mph 13 mph 93% 0.07 in 26 W/m2
09:54 63.1 °F 61.1 °F 29.94 in South 1.9 mph 13 mph 93% 0.08 in 37 W/m2
09:59 63.1 °F 61 °F 29.93 in South 1 mph 13 mph 93% 0.09 in 44 W/m2
10:04 63.1 °F 61.2 °F 29.93 in South 0.9 mph 13 mph 93.4% 0.11 in 54 W/m2
10:09 63.1 °F 61.3 °F 29.92 in SSE 0.2 mph 4 mph 94% 0.13 in 74 W/m2
10:14 63.1 °F 61.3 °F 29.91 in SSE 0.1 mph 4 mph 94% 0.14 in 56 W/m2
10:19 63.1 °F 61.3 °F 29.90 in SSE 0.1 mph 4 mph 94% 0.15 in 58 W/m2
10:24 63.1 °F 61.3 °F 29.89 in SE 0.2 mph 4 mph 94% 0.15 in 56 W/m2
10:29 63.1 °F 61.3 °F 29.89 in SSE 1.5 mph 9 mph 94% 0.16 in 62 W/m2
10:34 63 °F 61.3 °F 29.89 in SE 1.5 mph 9 mph 94% 0.19 in 118 W/m2
10:39 63 °F 61.3 °F 29.88 in SE 1.1 mph 6 mph 94% 0.19 in 158 W/m2
10:44 63.1 °F 61.5 °F 29.88 in ESE 1.4 mph 6 mph 94.3% 0.19 in 290 W/m2
10:49 63.3 °F 61.8 °F 29.86 in SE 0.9 mph 6 mph 95% 0.19 in 290 W/m2
10:54 63.4 °F 61.9 °F 29.85 in SE 1.7 mph 15 mph 95% 0.19 in 120 W/m2
10:59 63.5 °F 62 °F 29.85 in SSE 2.3 mph 15 mph 95% 0.20 in 97 W/m2
11:04 63.6 °F 62.2 °F 29.84 in SE 1.2 mph 15 mph 95% 0.20 in 65 W/m2
11:09 63.7 °F 62.2 °F 29.84 in SE 0.8 mph 8 mph 95% 0.13 in 83 W/m2
11:14 63.8 °F 62.3 °F 29.83 in SSE 3.1 mph 13 mph 95% 0.13 in 47 W/m2
11:19 63.9 °F 62.5 °F 29.82 in SSE 3.1 mph 13 mph 95% 0.14 in 51 W/m2
11:24 64.1 °F 62.6 °F 29.82 in South 5.2 mph 13 mph 95% 0.14 in 118 W/m2
11:29 64.4 °F 62.9 °F 29.81 in SSE 6.6 mph 14 mph 95% 0.14 in 144 W/m2
11:34 64.7 °F 63.2 °F 29.81 in South 6.6 mph 17 mph 95% 0.14 in 197 W/m2
11:39 65 °F 63.5 °F 29.80 in South 6.7 mph 17 mph 95% 0.07 in 179 W/m2
11:44 65.3 °F 63.6 °F 29.79 in South 6.8 mph 17 mph 94.3% 0.07 in 158 W/m2
11:49 65.5 °F 63.6 °F 29.79 in South 8.2 mph 22 mph 93.5% 0.07 in 132 W/m2
11:54 65.8 °F 63.5 °F 29.78 in South 4.6 mph 22 mph 92.1% 0.07 in 179 W/m2
11:59 65.9 °F 63.5 °F 29.78 in South 5.7 mph 22 mph 92% 0.07 in 113 W/m2
12:00 65.9 °F 63.5 °F 29.78 in South 11 mph 22 mph 92% 0.07 in 35 W/m2
12:09 65.7 °F 63.4 °F 29.78 in South 5.1 mph 15 mph 92.2% 0.06 in 46 W/m2
12:14 65.5 °F 63.3 °F 29.78 in South 4 mph 15 mph 92.6% 0.07 in 35 W/m2
12:19 65.2 °F 63.2 °F 29.79 in South 6.3 mph 17 mph 93% 0.07 in 51 W/m2
12:24 64.9 °F 62.8 °F 29.79 in South 6.4 mph 17 mph 92.6% 0.07 in 51 W/m2
12:29 64.8 °F 62.6 °F 29.79 in South 4.9 mph 17 mph 92.7% 0.08 in 67 W/m2
12:34 64.8 °F 62.7 °F 29.79 in South 3.6 mph 17 mph 93% 0.08 in 109 W/m2
12:39 64.8 °F 62.7 °F 29.79 in South 4.4 mph 23 mph 93% 0.06 in 130 W/m2
12:44 64.5 °F 62.3 °F 29.78 in South 2.6 mph 23 mph 92.6% 0.06 in 76 W/m2
12:49 64.4 °F 62 °F 29.78 in South 3.2 mph 23 mph 92% 0.06 in 62 W/m2
12:54 64.4 °F 62 °F 29.78 in South 4 mph 23 mph 92% 0.06 in 70 W/m2
12:59 64.3 °F 62 °F 29.78 in South 3.8 mph 23 mph 92% 0.06 in 69 W/m2
13:00 64.3 °F 61.9 °F 29.77 in South 3 mph 23 mph 92% 0.07 in 73 W/m2
13:30 63.1 °F 61.1 °F 29.78 in South 2 mph 14 mph 93% 0.30 in 26 W/m2
14:00 61 °F 59.3 °F 29.78 in WSW 2 mph 15 mph 94% 0.37 in 30 W/m2
14:30 60.6 °F 58.9 °F 29.78 in Calm   10 mph 94% 0.40 in 54 W/m2
15:00 60.4 °F 59 °F 29.79 in Calm   1 mph 95% 0.16 in 54 W/m2
15:30 61 °F 59.9 °F 29.79 in Calm     96% 0.05 in 71 W/m2
16:04 60.1 °F 58.7 °F 29.80 in WSW 0.1 mph 1 mph 95.1% 0.05 in 71 W/m2
16:09 59.9 °F 58.5 °F 29.80 in Calm   1 mph 95% 0.00 in 11 W/m2
16:14 59.8 °F 58.4 °F 29.80 in Calm   1 mph 95% 0.00 in 9 W/m2
16:19 59.7 °F 58.2 °F 29.80 in Calm   1 mph 95% 0.00 in 7 W/m2
16:24 59.5 °F 58 °F 29.80 in Calm   1 mph 94.8% 0.00 in 5 W/m2
16:29 59.3 °F 57.7 °F 29.80 in Calm   1 mph 94.3% 0.00 in 5 W/m2
16:34 59.1 °F 57.7 °F 29.81 in Calm   1 mph 95% 0.00 in 0 W/m2
16:39 58.9 °F 57.4 °F 29.81 in Calm     94.9% 0.00 in 0 W/m2
16:44 58.7 °F 57 °F 29.82 in Calm     94% 0.00 in 0 W/m2
16:49 58.5 °F 57 °F 29.82 in Calm     94.8% 0.00 in 0 W/m2
16:54 58.4 °F 57 °F 29.82 in Calm     95% 0.00 in 0 W/m2
16:59 58.3 °F 56.8 °F 29.82 in Calm     95% 0.00 in 0 W/m2
17:04 58.2 °F 56.7 °F 29.82 in Calm     95% 0.00 in 0 W/m2
17:09 58 °F 56.6 °F 29.82 in Calm     95% 0.00 in 0 W/m2
17:14 57.9 °F 56.5 °F 29.83 in Calm     95% 0.00 in 0 W/m2
17:19 57.7 °F 56.3 °F 29.83 in Calm     95% 0.00 in 0 W/m2
17:24 57.6 °F 56.2 °F 29.83 in Calm     95% 0.00 in 0 W/m2
17:29 57.4 °F 56 °F 29.83 in Calm     95% 0.00 in 0 W/m2
17:32 57.2 °F 55.8 °F 29.83 in Calm     95% 0.00 in 0 W/m2
18:00 56.4 °F 55 °F 29.85 in Calm   6 mph 95% 0.00 in 0 W/m2
18:30 55.3 °F 53.9 °F 29.87 in WNW 1 mph 5 mph 95% 0.00 in 0 W/m2
19:00 54.3 °F 52.9 °F 29.88 in WNW 1 mph 5 mph 95% 0.00 in 0 W/m2
19:30 53 °F 51.3 °F 29.89 in Calm   5 mph 94% 0.00 in 0 W/m2
20:04 51.7 °F 50 °F 29.90 in Calm   5 mph 94% 0.00 in 0 W/m2
20:09 51.5 °F 49.8 °F 29.90 in Calm     94% 0.00 in 0 W/m2
20:14 51.4 °F 49.9 °F 29.90 in Calm     94.7% 0.00 in 0 W/m2
20:19 51.2 °F 49.9 °F 29.90 in Calm     95% 0.00 in 0 W/m2
20:24 51.2 °F 49.8 °F 29.90 in Calm     95% 0.00 in 0 W/m2
20:29 51.1 °F 49.7 °F 29.90 in WNW 0.2 mph 3 mph 95% 0.00 in 0 W/m2
20:34 51 °F 49.5 °F 29.91 in Calm   3 mph 94.7% 0.00 in 0 W/m2
20:39 50.8 °F 49.2 °F 29.91 in Calm     94.1% 0.00 in 0 W/m2
20:44 50.7 °F 49.3 °F 29.91 in Calm     95% 0.00 in 0 W/m2
20:49 50.6 °F 49.2 °F 29.91 in Calm     95% 0.00 in 0 W/m2
20:54 50.4 °F 48.9 °F 29.91 in Calm     94.4% 0.00 in 0 W/m2
20:59 50.3 °F 48.6 °F 29.91 in Calm     94% 0.00 in 0 W/m2
21:04 50.1 °F 48.4 °F 29.91 in Calm     94% 0.00 in 0 W/m2
21:09 49.9 °F 48.3 °F 29.91 in Calm     94% 0.00 in 0 W/m2
21:14 49.7 °F 48.1 °F 29.91 in Calm     94% 0.00 in 0 W/m2
21:19 49.6 °F 47.9 °F 29.91 in Calm     94% 0.00 in 0 W/m2
21:24 49.4 °F 47.8 °F 29.91 in Calm     94% 0.00 in 0 W/m2
21:29 49.3 °F 47.7 °F 29.92 in Calm     94% 0.00 in 0 W/m2
21:34 49.2 °F 47.5 °F 29.92 in Calm     94% 0.00 in 0 W/m2
21:39 49 °F 47.4 °F 29.92 in Calm     94% 0.00 in 0 W/m2
21:44 48.9 °F 47.3 °F 29.92 in Calm     94% 0.00 in 0 W/m2
21:49 48.8 °F 47.1 °F 29.91 in Calm     94% 0.00 in 0 W/m2
21:54 48.6 °F 47 °F 29.91 in Calm     94% 0.00 in 0 W/m2
21:59 48.5 °F 46.8 °F 29.91 in Calm     94% 0.00 in 0 W/m2
22:04 48.3 °F 46.7 °F 29.91 in Calm     94% 0.00 in 0 W/m2
22:09 48.1 °F 46.5 °F 29.92 in Calm     94% 0.00 in 0 W/m2
22:14 47.9 °F 46.3 °F 29.92 in Calm     94% 0.00 in 0 W/m2
22:19 47.7 °F 46.1 °F 29.92 in Calm     94% 0.00 in 0 W/m2
22:24 47.5 °F 45.9 °F 29.92 in Calm     94% 0.00 in 0 W/m2
22:29 47.3 °F 45.7 °F 29.92 in Calm     94% 0.00 in 0 W/m2
22:34 47.1 °F 45.5 °F 29.92 in Calm     94% 0.00 in 0 W/m2
22:39 47 °F 45.3 °F 29.92 in Calm     94% 0.00 in 0 W/m2
22:44 46.8 °F 45.2 °F 29.91 in Calm     94% 0.00 in 0 W/m2
22:49 46.7 °F 45 °F 29.91 in Calm     94% 0.00 in 0 W/m2
22:54 46.5 °F 44.9 °F 29.91 in Calm     94% 0.00 in 0 W/m2
22:59 46.4 °F 45 °F 29.91 in Calm     94.6% 0.00 in 0 W/m2
23:09 46.1 °F 44.6 °F 29.90 in WNW 0.3 mph 3 mph 94.6% 0.00 in 0 W/m2
23:14 46 °F 44.3 °F 29.90 in Calm   3 mph 94% 0.00 in 0 W/m2
23:19 45.9 °F 44.4 °F 29.90 in Calm   3 mph 94.5% 0.00 in 0 W/m2
23:24 45.8 °F 44.4 °F 29.90 in WNW 0.3 mph 3 mph 95% 0.00 in 0 W/m2
23:29 45.8 °F 44.4 °F 29.90 in Calm   3 mph 95% 0.00 in 0 W/m2
23:34 45.7 °F 44.4 °F 29.90 in Calm   3 mph 95% 0.00 in 0 W/m2
23:39 45.7 °F 44.3 °F 29.90 in Calm     95% 0.00 in 0 W/m2
23:44 45.5 °F 44.2 °F 29.89 in Calm     94.9% 0.00 in 0 W/m2
23:49 45.4 °F 43.7 °F 29.89 in Calm     94% 0.00 in 0 W/m2
23:54 45.2 °F 43.5 °F 29.89 in Calm     94% 0.00 in 0 W/m2
23:59 45 °F 43.4 °F 29.89 in Calm     94% 0.00 in 0 W/m2
Hartford County Weather
Compliments of Weather Underground - 2 mb